< < Back
Terminal Aerodrome Forecast


Current Version              Previous Versions:   1  2  3  4  5  6  7  8  9  

Terminal Aerodrome Forecast

389
FTUS42 KCHS 230300 CCA
TAFSAV
TAF COR
KSAV 230338Z 2303/2324 05004KT 3SM BR OVC003
     FM230500 04004KT 2SM BR OVC002
     FM230700 VRB02KT 3/4SM -DZ BR VV002
     FM231530 12004KT 3SM BR OVC004
     FM231800 13005KT 5SM -SHRA BR OVC010=



Latest METAR

315
SAUS80 KWBC 230500
MTRSAV
METAR KSAV 230453Z 07004KT 1/2SM BR OVC002 10/09 A2997 RMK AO2 SFC VIS 2
SLP146 LAST AUGMENTED OBSERVATION UNTIL 1100Z T01000094
401220083


USA.gov is the U.S. government's official web portal to all federal, state and local government web resources and services.